sensor_id;sensor_type;location;lat;lon;timestamp;P1;P2;P0
46302;PMS7003;32029;51.358;5.628;2023-02-14T00:00:57;8.67;6.00;5.00
46302;PMS7003;32029;51.358;5.628;2023-02-14T00:03:23;4.33;4.33;3.33
46302;PMS7003;32029;51.358;5.628;2023-02-14T00:05:50;6.00;6.00;5.00
46302;PMS7003;32029;51.358;5.628;2023-02-14T00:08:17;5.00;5.00;4.00
46302;PMS7003;32029;51.358;5.628;2023-02-14T00:10:43;6.67;6.00;5.00
46302;PMS7003;32029;51.358;5.628;2023-02-14T00:13:11;8.00;4.67;4.00
46302;PMS7003;32029;51.358;5.628;2023-02-14T00:15:37;8.67;5.00;4.67
46302;PMS7003;32029;51.358;5.628;2023-02-14T00:18:04;6.00;6.00;5.00
46302;PMS7003;32029;51.358;5.628;2023-02-14T00:20:31;4.33;2.00;1.67
46302;PMS7003;32029;51.358;5.628;2023-02-14T00:22:58;4.00;4.00;2.67
46302;PMS7003;32029;51.358;5.628;2023-02-14T00:25:26;6.00;4.00;2.00
46302;PMS7003;32029;51.358;5.628;2023-02-14T00:27:52;4.00;4.00;3.33
46302;PMS7003;32029;51.358;5.628;2023-02-14T00:30:20;5.50;5.50;3.00
46302;PMS7003;32029;51.358;5.628;2023-02-14T00:32:46;4.50;2.00;2.00
46302;PMS7003;32029;51.358;5.628;2023-02-14T00:35:12;4.50;2.00;2.00
46302;PMS7003;32029;51.358;5.628;2023-02-14T00:37:38;5.00;2.00;1.33
46302;PMS7003;32029;51.358;5.628;2023-02-14T00:40:05;2.67;2.67;1.33
46302;PMS7003;32029;51.358;5.628;2023-02-14T00:42:33;4.00;4.00;2.00
46302;PMS7003;32029;51.358;5.628;2023-02-14T00:44:59;6.00;6.00;4.00
46302;PMS7003;32029;51.358;5.628;2023-02-14T00:47:26;5.00;3.33;2.00
46302;PMS7003;32029;51.358;5.628;2023-02-14T00:49:53;4.00;4.00;2.00
46302;PMS7003;32029;51.358;5.628;2023-02-14T00:52:19;2.33;1.67;1.00
46302;PMS7003;32029;51.358;5.628;2023-02-14T00:54:46;5.00;4.00;3.33
46302;PMS7003;32029;51.358;5.628;2023-02-14T00:57:12;4.00;2.00;2.00
46302;PMS7003;32029;51.358;5.628;2023-02-14T00:59:39;2.67;2.67;2.00
46302;PMS7003;32029;51.358;5.628;2023-02-14T01:02:06;7.00;4.00;2.00
46302;PMS7003;32029;51.358;5.628;2023-02-14T01:04:32;4.00;4.00;2.67
46302;PMS7003;32029;51.358;5.628;2023-02-14T01:06:59;4.67;4.00;2.00
46302;PMS7003;32029;51.358;5.628;2023-02-14T01:09:26;4.00;4.00;3.33
46302;PMS7003;32029;51.358;5.628;2023-02-14T01:11:52;4.00;4.00;2.00
46302;PMS7003;32029;51.358;5.628;2023-02-14T01:14:19;4.67;4.67;3.33
46302;PMS7003;32029;51.358;5.628;2023-02-14T01:16:46;3.33;3.33;2.00
46302;PMS7003;32029;51.358;5.628;2023-02-14T01:19:13;2.67;2.67;1.33
46302;PMS7003;32029;51.358;5.628;2023-02-14T01:21:40;4.67;4.67;3.33
46302;PMS7003;32029;51.358;5.628;2023-02-14T01:24:06;6.00;3.33;2.00
46302;PMS7003;32029;51.358;5.628;2023-02-14T01:26:34;2.67;2.67;1.67
46302;PMS7003;32029;51.358;5.628;2023-02-14T01:29:01;6.00;4.00;3.33
46302;PMS7003;32029;51.358;5.628;2023-02-14T01:31:29;4.00;4.00;2.00
46302;PMS7003;32029;51.358;5.628;2023-02-14T01:33:57;4.00;4.00;2.00
46302;PMS7003;32029;51.358;5.628;2023-02-14T01:38:52;5.00;4.00;2.00
46302;PMS7003;32029;51.358;5.628;2023-02-14T01:41:21;4.00;4.00;1.00
46302;PMS7003;32029;51.358;5.628;2023-02-14T01:43:49;5.00;4.00;3.00
46302;PMS7003;32029;51.358;5.628;2023-02-14T01:46:34;5.00;4.00;2.00
46302;PMS7003;32029;51.358;5.628;2023-02-14T01:49:08;5.67;4.00;2.67
46302;PMS7003;32029;51.358;5.628;2023-02-14T01:51:45;5.50;4.00;4.00
46302;PMS7003;32029;51.358;5.628;2023-02-14T01:54:17;6.00;4.33;3.33
46302;PMS7003;32029;51.358;5.628;2023-02-14T01:56:49;5.00;5.00;4.00
46302;PMS7003;32029;51.358;5.628;2023-02-14T01:59:20;2.00;2.00;1.67
46302;PMS7003;32029;51.358;5.628;2023-02-14T02:01:50;6.33;5.00;4.67
46302;PMS7003;32029;51.358;5.628;2023-02-14T02:04:21;5.67;4.33;4.00
46302;PMS7003;32029;51.358;5.628;2023-02-14T02:06:54;5.00;5.00;4.00
46302;PMS7003;32029;51.358;5.628;2023-02-14T02:09:27;5.00;2.00;1.00
46302;PMS7003;32029;51.358;5.628;2023-02-14T02:11:58;4.50;4.50;3.00
46302;PMS7003;32029;51.358;5.628;2023-02-14T02:14:24;4.00;4.00;1.50
46302;PMS7003;32029;51.358;5.628;2023-02-14T02:39:53;4.00;2.00;1.00
46302;PMS7003;32029;51.358;5.628;2023-02-14T02:45:34;4.00;4.00;4.00
46302;PMS7003;32029;51.358;5.628;2023-02-14T02:48:41;7.00;7.00;4.00
46302;PMS7003;32029;51.358;5.628;2023-02-14T02:51:16;3.00;3.00;2.00
46302;PMS7003;32029;51.358;5.628;2023-02-14T02:54:08;7.00;7.00;4.50
46302;PMS7003;32029;51.358;5.628;2023-02-14T02:56:47;4.00;4.00;4.00
46302;PMS7003;32029;51.358;5.628;2023-02-14T03:04:36;7.50;6.00;4.50
46302;PMS7003;32029;51.358;5.628;2023-02-14T03:07:19;8.00;4.00;4.00
46302;PMS7003;32029;51.358;5.628;2023-02-14T03:10:20;7.00;7.00;4.00
46302;PMS7003;32029;51.358;5.628;2023-02-14T03:18:07;7.00;7.00;5.00
46302;PMS7003;32029;51.358;5.628;2023-02-14T03:21:05;7.50;7.50;5.00
46302;PMS7003;32029;51.358;5.628;2023-02-14T03:23:57;6.00;5.00;4.00
46302;PMS7003;32029;51.358;5.628;2023-02-14T03:26:51;6.50;4.50;4.00
46302;PMS7003;32029;51.358;5.628;2023-02-14T03:29:39;7.50;5.50;4.50
46302;PMS7003;32029;51.358;5.628;2023-02-14T03:32:16;6.50;6.50;5.00
46302;PMS7003;32029;51.358;5.628;2023-02-14T03:37:38;8.50;8.00;5.00
46302;PMS7003;32029;51.358;5.628;2023-02-14T03:43:09;6.50;6.50;4.50
46302;PMS7003;32029;51.358;5.628;2023-02-14T03:45:43;8.00;4.00;4.00
46302;PMS7003;32029;51.358;5.628;2023-02-14T03:48:16;4.50;4.50;4.00
46302;PMS7003;32029;51.358;5.628;2023-02-14T03:50:45;8.00;5.50;5.00
46302;PMS7003;32029;51.358;5.628;2023-02-14T03:53:15;8.00;8.00;5.00
46302;PMS7003;32029;51.358;5.628;2023-02-14T03:55:49;5.00;5.00;4.00
46302;PMS7003;32029;51.358;5.628;2023-02-14T03:58:24;4.00;4.00;4.00
46302;PMS7003;32029;51.358;5.628;2023-02-14T04:00:57;8.50;5.00;5.00
46302;PMS7003;32029;51.358;5.628;2023-02-14T04:03:27;7.00;7.00;6.00
46302;PMS7003;32029;51.358;5.628;2023-02-14T04:05:56;4.50;4.50;4.50
46302;PMS7003;32029;51.358;5.628;2023-02-14T04:08:27;5.00;3.00;2.00
46302;PMS7003;32029;51.358;5.628;2023-02-14T04:10:55;11.00;7.00;5.00
46302;PMS7003;32029;51.358;5.628;2023-02-14T04:13:23;12.00;8.00;7.00
46302;PMS7003;32029;51.358;5.628;2023-02-14T04:15:50;6.33;4.33;4.00
46302;PMS7003;32029;51.358;5.628;2023-02-14T04:18:17;4.67;4.67;4.00
46302;PMS7003;32029;51.358;5.628;2023-02-14T04:21:02;7.00;7.00;5.00
46302;PMS7003;32029;51.358;5.628;2023-02-14T04:23:28;4.50;4.50;4.00
46302;PMS7003;32029;51.358;5.628;2023-02-14T04:25:54;6.50;5.00;2.00
46302;PMS7003;32029;51.358;5.628;2023-02-14T04:28:20;8.00;6.67;5.00
46302;PMS7003;32029;51.358;5.628;2023-02-14T04:30:46;6.50;4.00;4.00
46302;PMS7003;32029;51.358;5.628;2023-02-14T04:33:12;8.00;8.00;5.00
46302;PMS7003;32029;51.358;5.628;2023-02-14T04:35:38;5.00;5.00;4.00
46302;PMS7003;32029;51.358;5.628;2023-02-14T04:38:05;4.00;4.00;2.00
46302;PMS7003;32029;51.358;5.628;2023-02-14T04:40:31;7.00;5.00;4.00
46302;PMS7003;32029;51.358;5.628;2023-02-14T04:42:58;7.33;4.67;4.00
46302;PMS7003;32029;51.358;5.628;2023-02-14T04:45:26;7.00;7.00;5.00
46302;PMS7003;32029;51.358;5.628;2023-02-14T04:47:53;4.67;4.67;2.00
46302;PMS7003;32029;51.358;5.628;2023-02-14T04:50:19;4.67;3.33;1.67
46302;PMS7003;32029;51.358;5.628;2023-02-14T04:52:47;4.00;4.00;4.00
46302;PMS7003;32029;51.358;5.628;2023-02-14T04:55:13;7.00;7.00;4.00
46302;PMS7003;32029;51.358;5.628;2023-02-14T04:57:39;8.00;7.00;4.50
46302;PMS7003;32029;51.358;5.628;2023-02-14T05:00:06;4.00;4.00;3.00
46302;PMS7003;32029;51.358;5.628;2023-02-14T05:02:32;5.00;5.00;5.00
46302;PMS7003;32029;51.358;5.628;2023-02-14T05:04:58;7.00;7.00;5.00
46302;PMS7003;32029;51.358;5.628;2023-02-14T05:07:24;8.50;7.00;5.00
46302;PMS7003;32029;51.358;5.628;2023-02-14T05:09:51;8.00;5.00;4.50
46302;PMS7003;32029;51.358;5.628;2023-02-14T05:12:17;5.50;5.50;4.00
46302;PMS7003;32029;51.358;5.628;2023-02-14T05:14:43;8.00;8.00;5.00
46302;PMS7003;32029;51.358;5.628;2023-02-14T05:17:09;8.00;5.50;5.50
46302;PMS7003;32029;51.358;5.628;2023-02-14T05:19:35;7.00;5.00;4.00
46302;PMS7003;32029;51.358;5.628;2023-02-14T05:22:01;4.00;4.00;2.00
46302;PMS7003;32029;51.358;5.628;2023-02-14T05:24:27;5.00;5.00;4.00
46302;PMS7003;32029;51.358;5.628;2023-02-14T05:26:53;2.00;2.00;2.00
46302;PMS7003;32029;51.358;5.628;2023-02-14T05:29:19;4.00;4.00;2.00
46302;PMS7003;32029;51.358;5.628;2023-02-14T05:31:45;4.00;4.00;4.00
46302;PMS7003;32029;51.358;5.628;2023-02-14T05:34:11;5.00;5.00;4.00
46302;PMS7003;32029;51.358;5.628;2023-02-14T05:36:38;9.00;5.00;2.00
46302;PMS7003;32029;51.358;5.628;2023-02-14T05:39:04;4.00;4.00;3.00
46302;PMS7003;32029;51.358;5.628;2023-02-14T05:41:30;7.00;4.00;4.00
46302;PMS7003;32029;51.358;5.628;2023-02-14T05:43:56;4.50;3.00;2.00
46302;PMS7003;32029;51.358;5.628;2023-02-14T05:46:22;5.00;5.00;5.00
46302;PMS7003;32029;51.358;5.628;2023-02-14T05:48:48;5.00;4.00;2.00
46302;PMS7003;32029;51.358;5.628;2023-02-14T05:51:14;4.00;4.00;4.00
46302;PMS7003;32029;51.358;5.628;2023-02-14T05:53:40;2.00;2.00;2.00
46302;PMS7003;32029;51.358;5.628;2023-02-14T05:56:06;1.00;1.00;0.50
46302;PMS7003;32029;51.358;5.628;2023-02-14T05:58:32;2.00;2.00;0.00
46302;PMS7003;32029;51.358;5.628;2023-02-14T06:00:59;4.50;4.50;4.00
46302;PMS7003;32029;51.358;5.628;2023-02-14T06:03:25;4.50;4.50;4.00
46302;PMS7003;32029;51.358;5.628;2023-02-14T06:05:51;2.00;2.00;2.00
46302;PMS7003;32029;51.358;5.628;2023-02-14T06:08:17;1.00;1.00;1.00
46302;PMS7003;32029;51.358;5.628;2023-02-14T06:10:44;6.33;5.00;4.33
46302;PMS7003;32029;51.358;5.628;2023-02-14T06:13:10;2.00;1.00;0.00
46302;PMS7003;32029;51.358;5.628;2023-02-14T06:15:36;5.00;5.00;4.00
46302;PMS7003;32029;51.358;5.628;2023-02-14T06:18:03;4.00;4.00;2.00
46302;PMS7003;32029;51.358;5.628;2023-02-14T06:20:29;4.00;4.00;4.00
46302;PMS7003;32029;51.358;5.628;2023-02-14T06:22:56;3.00;2.00;2.00
46302;PMS7003;32029;51.358;5.628;2023-02-14T06:25:22;3.00;3.00;2.00
46302;PMS7003;32029;51.358;5.628;2023-02-14T06:27:49;7.00;5.00;4.00
46302;PMS7003;32029;51.358;5.628;2023-02-14T06:30:16;7.50;3.00;1.00
46302;PMS7003;32029;51.358;5.628;2023-02-14T06:32:42;2.00;2.00;2.00
46302;PMS7003;32029;51.358;5.628;2023-02-14T06:35:08;2.00;2.00;2.00
46302;PMS7003;32029;51.358;5.628;2023-02-14T06:37:34;2.00;2.00;1.00
46302;PMS7003;32029;51.358;5.628;2023-02-14T06:40:00;1.00;1.00;0.00
46302;PMS7003;32029;51.358;5.628;2023-02-14T06:42:27;4.00;4.00;4.00
46302;PMS7003;32029;51.358;5.628;2023-02-14T06:44:53;7.00;7.00;4.50
46302;PMS7003;32029;51.358;5.628;2023-02-14T06:47:19;4.00;4.00;4.00
46302;PMS7003;32029;51.358;5.628;2023-02-14T06:49:45;4.50;4.50;2.00
46302;PMS7003;32029;51.358;5.628;2023-02-14T06:52:11;6.00;6.00;4.50
46302;PMS7003;32029;51.358;5.628;2023-02-14T06:54:37;4.00;4.00;2.00
46302;PMS7003;32029;51.358;5.628;2023-02-14T06:57:03;3.50;3.50;2.00
46302;PMS7003;32029;51.358;5.628;2023-02-14T06:59:29;5.00;4.00;2.00
46302;PMS7003;32029;51.358;5.628;2023-02-14T07:01:55;1.50;1.50;1.50
46302;PMS7003;32029;51.358;5.628;2023-02-14T07:04:21;5.00;4.00;2.00
46302;PMS7003;32029;51.358;5.628;2023-02-14T07:06:47;4.00;4.00;2.00
46302;PMS7003;32029;51.358;5.628;2023-02-14T07:09:13;6.00;6.00;4.50
46302;PMS7003;32029;51.358;5.628;2023-02-14T07:11:43;8.50;7.50;5.00
46302;PMS7003;32029;51.358;5.628;2023-02-14T07:14:09;5.00;2.00;2.00
46302;PMS7003;32029;51.358;5.628;2023-02-14T07:16:36;7.00;5.00;4.00
46302;PMS7003;32029;51.358;5.628;2023-02-14T07:19:02;5.00;5.00;4.50
46302;PMS7003;32029;51.358;5.628;2023-02-14T07:21:28;7.00;5.00;4.00
46302;PMS7003;32029;51.358;5.628;2023-02-14T07:23:54;6.00;5.00;4.00
46302;PMS7003;32029;51.358;5.628;2023-02-14T07:26:20;7.00;4.50;4.00
46302;PMS7003;32029;51.358;5.628;2023-02-14T07:28:47;8.00;6.33;4.00
46302;PMS7003;32029;51.358;5.628;2023-02-14T07:31:14;7.00;4.00;2.00
46302;PMS7003;32029;51.358;5.628;2023-02-14T07:33:40;5.00;5.00;2.00
46302;PMS7003;32029;51.358;5.628;2023-02-14T07:36:07;5.00;5.00;4.00
46302;PMS7003;32029;51.358;5.628;2023-02-14T07:38:34;3.00;3.00;2.00
46302;PMS7003;32029;51.358;5.628;2023-02-14T07:41:01;6.00;6.00;5.00
46302;PMS7003;32029;51.358;5.628;2023-02-14T07:43:27;4.00;4.00;4.00
46302;PMS7003;32029;51.358;5.628;2023-02-14T07:45:53;7.00;5.00;5.00
46302;PMS7003;32029;51.358;5.628;2023-02-14T07:48:19;7.50;7.00;5.00
46302;PMS7003;32029;51.358;5.628;2023-02-14T07:50:46;4.00;4.00;4.00
46302;PMS7003;32029;51.358;5.628;2023-02-14T07:53:13;5.00;5.00;4.50
46302;PMS7003;32029;51.358;5.628;2023-02-14T07:55:39;3.00;3.00;2.00
46302;PMS7003;32029;51.358;5.628;2023-02-14T07:58:05;4.00;4.00;3.00
46302;PMS7003;32029;51.358;5.628;2023-02-14T08:00:32;4.00;4.00;2.00
46302;PMS7003;32029;51.358;5.628;2023-02-14T08:02:59;1.67;1.67;1.00
46302;PMS7003;32029;51.358;5.628;2023-02-14T08:05:25;2.00;1.00;1.00
46302;PMS7003;32029;51.358;5.628;2023-02-14T08:07:51;1.50;1.50;1.00
46302;PMS7003;32029;51.358;5.628;2023-02-14T08:10:17;2.00;1.50;1.50
46302;PMS7003;32029;51.358;5.628;2023-02-14T08:12:43;2.00;2.00;1.33
46302;PMS7003;32029;51.358;5.628;2023-02-14T08:18:11;6.50;4.50;2.00
46302;PMS7003;32029;51.358;5.628;2023-02-14T08:20:38;2.67;2.00;1.67
46302;PMS7003;32029;51.358;5.628;2023-02-14T08:23:05;4.00;4.00;4.00
46302;PMS7003;32029;51.358;5.628;2023-02-14T08:25:31;6.00;4.67;4.00
46302;PMS7003;32029;51.358;5.628;2023-02-14T08:28:00;3.00;2.00;1.67
46302;PMS7003;32029;51.358;5.628;2023-02-14T08:30:27;1.00;1.00;0.67
46302;PMS7003;32029;51.358;5.628;2023-02-14T08:32:54;2.00;2.00;2.00
46302;PMS7003;32029;51.358;5.628;2023-02-14T08:35:20;1.00;1.00;1.00
46302;PMS7003;32029;51.358;5.628;2023-02-14T08:37:47;2.00;2.00;2.00
46302;PMS7003;32029;51.358;5.628;2023-02-14T08:40:14;4.00;1.67;1.00
46302;PMS7003;32029;51.358;5.628;2023-02-14T08:42:43;9.00;6.00;4.00
46302;PMS7003;32029;51.358;5.628;2023-02-14T08:45:09;4.00;4.00;2.00
46302;PMS7003;32029;51.358;5.628;2023-02-14T08:47:35;4.00;4.00;4.00
46302;PMS7003;32029;51.358;5.628;2023-02-14T08:50:04;4.00;4.00;4.00
46302;PMS7003;32029;51.358;5.628;2023-02-14T08:52:31;4.50;4.50;4.00
46302;PMS7003;32029;51.358;5.628;2023-02-14T08:54:57;4.00;3.00;3.00
46302;PMS7003;32029;51.358;5.628;2023-02-14T08:57:23;4.00;4.00;1.00
46302;PMS7003;32029;51.358;5.628;2023-02-14T08:59:49;7.00;7.00;5.00
46302;PMS7003;32029;51.358;5.628;2023-02-14T09:02:15;11.00;8.50;6.00
46302;PMS7003;32029;51.358;5.628;2023-02-14T09:04:41;6.00;5.00;4.00
46302;PMS7003;32029;51.358;5.628;2023-02-14T09:07:10;5.67;5.67;5.00
46302;PMS7003;32029;51.358;5.628;2023-02-14T09:09:36;10.00;8.00;5.00
46302;PMS7003;32029;51.358;5.628;2023-02-14T09:12:03;8.00;6.00;5.33
46302;PMS7003;32029;51.358;5.628;2023-02-14T09:14:33;8.50;5.50;4.00
46302;PMS7003;32029;51.358;5.628;2023-02-14T09:17:01;13.00;12.00;8.00
46302;PMS7003;32029;51.358;5.628;2023-02-14T09:19:31;5.00;5.00;4.00
46302;PMS7003;32029;51.358;5.628;2023-02-14T09:21:58;8.00;8.00;6.00
46302;PMS7003;32029;51.358;5.628;2023-02-14T09:24:25;8.00;6.67;5.00
46302;PMS7003;32029;51.358;5.628;2023-02-14T09:26:52;7.00;7.00;5.33
46302;PMS7003;32029;51.358;5.628;2023-02-14T09:29:19;6.00;6.00;5.00
46302;PMS7003;32029;51.358;5.628;2023-02-14T09:31:46;11.67;8.67;6.67
46302;PMS7003;32029;51.358;5.628;2023-02-14T09:34:13;11.67;7.67;5.00
46302;PMS7003;32029;51.358;5.628;2023-02-14T09:36:39;6.00;6.00;5.00
46302;PMS7003;32029;51.358;5.628;2023-02-14T09:39:24;7.00;7.00;5.67
46302;PMS7003;32029;51.358;5.628;2023-02-14T09:50:12;7.00;7.00;5.00
46302;PMS7003;32029;51.358;5.628;2023-02-14T09:52:48;7.00;6.00;5.33
46302;PMS7003;32029;51.358;5.628;2023-02-14T09:55:18;5.67;5.67;5.67
46302;PMS7003;32029;51.358;5.628;2023-02-14T10:00:37;9.00;5.00;3.00
46302;PMS7003;32029;51.358;5.628;2023-02-14T10:03:39;10.67;7.67;6.33
46302;PMS7003;32029;51.358;5.628;2023-02-14T10:06:18;6.00;5.00;2.67
46302;PMS7003;32029;51.358;5.628;2023-02-14T10:09:33;6.00;6.00;5.00
46302;PMS7003;32029;51.358;5.628;2023-02-14T10:12:21;4.00;2.00;2.00
46302;PMS7003;32029;51.358;5.628;2023-02-14T10:22:23;10.67;9.67;6.67
46302;PMS7003;32029;51.358;5.628;2023-02-14T10:24:57;8.67;5.33;5.00
46302;PMS7003;32029;51.358;5.628;2023-02-14T10:27:39;9.33;9.33;6.67
46302;PMS7003;32029;51.358;5.628;2023-02-14T10:30:17;9.67;7.00;6.00
46302;PMS7003;32029;51.358;5.628;2023-02-14T10:40:45;2.67;2.67;0.67
46302;PMS7003;32029;51.358;5.628;2023-02-14T10:43:32;12.33;10.00;7.00
46302;PMS7003;32029;51.358;5.628;2023-02-14T10:46:17;12.00;9.67;6.67
46302;PMS7003;32029;51.358;5.628;2023-02-14T10:48:56;5.33;5.33;3.00
46302;PMS7003;32029;51.358;5.628;2023-02-14T10:56:54;10.14;8.57;6.71
46302;PMS7003;32029;51.358;5.628;2023-02-14T10:59:26;8.00;7.67;6.67
46302;PMS7003;32029;51.358;5.628;2023-02-14T11:02:01;6.80;6.80;6.00
46302;PMS7003;32029;51.358;5.628;2023-02-14T11:04:30;8.33;7.00;5.67
46302;PMS7003;32029;51.358;5.628;2023-02-14T11:06:58;11.00;8.00;6.00
46302;PMS7003;32029;51.358;5.628;2023-02-14T11:09:25;5.00;5.00;2.67
46302;PMS7003;32029;51.358;5.628;2023-02-14T11:11:52;11.67;8.00;6.67
46302;PMS7003;32029;51.358;5.628;2023-02-14T11:16:49;6.80;6.80;4.00
46302;PMS7003;32029;51.358;5.628;2023-02-14T11:21:51;7.29;7.29;6.00
46302;PMS7003;32029;51.358;5.628;2023-02-14T11:24:35;11.33;8.67;6.00
46302;PMS7003;32029;51.358;5.628;2023-02-14T11:32:08;8.00;6.33;4.67
46302;PMS7003;32029;51.358;5.628;2023-02-14T11:34:44;12.20;10.00;7.40
46302;PMS7003;32029;51.358;5.628;2023-02-14T11:37:23;8.67;8.00;7.00
46302;PMS7003;32029;51.358;5.628;2023-02-14T11:39:55;8.00;8.00;5.00
46302;PMS7003;32029;51.358;5.628;2023-02-14T11:42:41;5.33;5.33;4.00
46302;PMS7003;32029;51.358;5.628;2023-02-14T11:45:25;7.50;6.75;4.75
46302;PMS7003;32029;51.358;5.628;2023-02-14T11:48:15;13.80;8.20;7.80
46302;PMS7003;32029;51.358;5.628;2023-02-14T11:50:56;6.00;6.00;3.67
46302;PMS7003;32029;51.358;5.628;2023-02-14T11:53:33;9.67;7.00;4.67
46302;PMS7003;32029;51.358;5.628;2023-02-14T11:56:06;8.60;8.60;7.00
46302;PMS7003;32029;51.358;5.628;2023-02-14T12:01:00;12.60;9.80;8.00
46302;PMS7003;32029;51.358;5.628;2023-02-14T12:03:32;14.00;12.20;8.80
46302;PMS7003;32029;51.358;5.628;2023-02-14T12:06:05;11.33;10.00;7.00
46302;PMS7003;32029;51.358;5.628;2023-02-14T12:08:31;13.00;9.00;7.33
46302;PMS7003;32029;51.358;5.628;2023-02-14T12:11:10;7.33;5.67;3.33
46302;PMS7003;32029;51.358;5.628;2023-02-14T12:13:52;8.67;8.67;7.67
46302;PMS7003;32029;51.358;5.628;2023-02-14T12:16:24;7.33;7.33;5.33
46302;PMS7003;32029;51.358;5.628;2023-02-14T12:19:04;12.33;8.33;7.00
46302;PMS7003;32029;51.358;5.628;2023-02-14T12:21:40;9.67;8.00;6.00
46302;PMS7003;32029;51.358;5.628;2023-02-14T12:27:14;11.00;6.60;5.00
46302;PMS7003;32029;51.358;5.628;2023-02-14T12:29:58;13.33;9.67;8.00
46302;PMS7003;32029;51.358;5.628;2023-02-14T12:32:32;13.33;8.00;7.33
46302;PMS7003;32029;51.358;5.628;2023-02-14T12:35:01;11.33;9.00;7.00
46302;PMS7003;32029;51.358;5.628;2023-02-14T12:37:39;10.80;9.80;7.80
46302;PMS7003;32029;51.358;5.628;2023-02-14T12:43:17;10.67;6.33;4.00
46302;PMS7003;32029;51.358;5.628;2023-02-14T12:46:09;9.67;6.33;4.67
46302;PMS7003;32029;51.358;5.628;2023-02-14T12:49:00;13.20;9.40;6.80
46302;PMS7003;32029;51.358;5.628;2023-02-14T13:00:21;7.00;7.00;5.67
46302;PMS7003;32029;51.358;5.628;2023-02-14T13:08:34;9.67;8.00;5.00
46302;PMS7003;32029;51.358;5.628;2023-02-14T13:11:13;8.20;7.60;4.60
46302;PMS7003;32029;51.358;5.628;2023-02-14T13:16:42;5.67;5.67;5.00
46302;PMS7003;32029;51.358;5.628;2023-02-14T13:22:28;10.33;8.00;5.00
46302;PMS7003;32029;51.358;5.628;2023-02-14T13:25:00;16.67;14.33;9.00
46302;PMS7003;32029;51.358;5.628;2023-02-14T13:27:33;8.60;7.60;5.20
46302;PMS7003;32029;51.358;5.628;2023-02-14T13:32:41;7.00;7.00;5.00
46302;PMS7003;32029;51.358;5.628;2023-02-14T13:35:14;8.20;6.80;5.00
46302;PMS7003;32029;51.358;5.628;2023-02-14T13:37:45;10.40;6.20;4.40
46302;PMS7003;32029;51.358;5.628;2023-02-14T13:40:22;12.67;6.00;4.67
46302;PMS7003;32029;51.358;5.628;2023-02-14T13:42:52;9.00;6.67;4.33
46302;PMS7003;32029;51.358;5.628;2023-02-14T13:48:03;5.33;4.00;3.00
46302;PMS7003;32029;51.358;5.628;2023-02-14T13:50:52;12.00;6.00;5.00
46302;PMS7003;32029;51.358;5.628;2023-02-14T13:53:29;9.33;9.00;5.67
46302;PMS7003;32029;51.358;5.628;2023-02-14T13:55:57;14.60;10.60;8.60
46302;PMS7003;32029;51.358;5.628;2023-02-14T13:58:25;13.60;8.80;4.80
46302;PMS7003;32029;51.358;5.628;2023-02-14T14:00:52;15.00;10.67;8.00
46302;PMS7003;32029;51.358;5.628;2023-02-14T14:08:39;6.67;6.67;5.00
46302;PMS7003;32029;51.358;5.628;2023-02-14T14:13:56;11.00;8.00;5.00
46302;PMS7003;32029;51.358;5.628;2023-02-14T14:16:43;11.33;8.00;5.33
46302;PMS7003;32029;51.358;5.628;2023-02-14T14:22:00;11.00;8.60;6.20
46302;PMS7003;32029;51.358;5.628;2023-02-14T14:24:37;9.00;6.60;5.00
46302;PMS7003;32029;51.358;5.628;2023-02-14T14:27:21;8.00;5.33;4.67
46302;PMS7003;32029;51.358;5.628;2023-02-14T14:30:04;13.33;10.33;7.33
46302;PMS7003;32029;51.358;5.628;2023-02-14T14:32:40;8.33;6.00;5.00
46302;PMS7003;32029;51.358;5.628;2023-02-14T14:37:45;9.00;8.00;5.33
46302;PMS7003;32029;51.358;5.628;2023-02-14T14:40:18;13.60;10.60;8.40
46302;PMS7003;32029;51.358;5.628;2023-02-14T14:42:50;9.33;7.33;6.00
46302;PMS7003;32029;51.358;5.628;2023-02-14T14:47:54;9.60;9.60;7.20
46302;PMS7003;32029;51.358;5.628;2023-02-14T14:50:26;7.67;6.00;4.00
46302;PMS7003;32029;51.358;5.628;2023-02-14T14:52:56;11.33;7.67;5.33
46302;PMS7003;32029;51.358;5.628;2023-02-14T14:55:35;9.00;6.00;5.00
46302;PMS7003;32029;51.358;5.628;2023-02-14T14:58:05;11.40;9.00;6.60
46302;PMS7003;32029;51.358;5.628;2023-02-14T15:00:52;10.67;8.67;4.67
46302;PMS7003;32029;51.358;5.628;2023-02-14T15:03:20;11.80;9.60;8.20
46302;PMS7003;32029;51.358;5.628;2023-02-14T15:05:51;10.20;7.80;5.20
46302;PMS7003;32029;51.358;5.628;2023-02-14T15:08:31;12.40;9.40;5.60
46302;PMS7003;32029;51.358;5.628;2023-02-14T15:13:48;7.20;6.80;4.80
46302;PMS7003;32029;51.358;5.628;2023-02-14T15:16:19;11.00;11.00;7.67
46302;PMS7003;32029;51.358;5.628;2023-02-14T15:18:54;7.67;6.00;5.67
46302;PMS7003;32029;51.358;5.628;2023-02-14T15:21:24;10.33;9.00;6.67
46302;PMS7003;32029;51.358;5.628;2023-02-14T15:23:54;10.80;9.40;6.60
46302;PMS7003;32029;51.358;5.628;2023-02-14T15:26:22;11.00;7.67;5.33
46302;PMS7003;32029;51.358;5.628;2023-02-14T15:28:57;10.67;7.67;6.67
46302;PMS7003;32029;51.358;5.628;2023-02-14T15:31:27;8.33;6.00;5.00
46302;PMS7003;32029;51.358;5.628;2023-02-14T15:33:57;10.40;9.80;7.20
46302;PMS7003;32029;51.358;5.628;2023-02-14T15:36:26;9.33;8.33;6.00
46302;PMS7003;32029;51.358;5.628;2023-02-14T15:38:53;11.00;6.33;5.00
46302;PMS7003;32029;51.358;5.628;2023-02-14T15:41:23;17.00;10.67;6.00
46302;PMS7003;32029;51.358;5.628;2023-02-14T15:43:52;10.00;9.67;6.67
46302;PMS7003;32029;51.358;5.628;2023-02-14T15:48:51;17.67;12.33;9.50
46302;PMS7003;32029;51.358;5.628;2023-02-14T15:51:21;12.33;10.00;6.33
46302;PMS7003;32029;51.358;5.628;2023-02-14T15:53:52;14.67;10.00;4.67
46302;PMS7003;32029;51.358;5.628;2023-02-14T15:56:27;7.67;6.33;4.33
46302;PMS7003;32029;51.358;5.628;2023-02-14T15:59:04;11.00;10.00;8.67
46302;PMS7003;32029;51.358;5.628;2023-02-14T16:01:37;8.33;7.67;5.00
46302;PMS7003;32029;51.358;5.628;2023-02-14T16:04:04;14.67;9.00;5.67
46302;PMS7003;32029;51.358;5.628;2023-02-14T16:06:37;12.40;9.40;7.20
46302;PMS7003;32029;51.358;5.628;2023-02-14T16:09:21;20.67;12.67;9.00
46302;PMS7003;32029;51.358;5.628;2023-02-14T16:11:50;10.67;9.67;8.00
46302;PMS7003;32029;51.358;5.628;2023-02-14T16:14:33;12.00;8.80;6.00
46302;PMS7003;32029;51.358;5.628;2023-02-14T16:17:03;12.40;6.60;5.00
46302;PMS7003;32029;51.358;5.628;2023-02-14T16:19:38;11.00;10.00;6.40
46302;PMS7003;32029;51.358;5.628;2023-02-14T16:22:10;13.67;9.33;6.00
46302;PMS7003;32029;51.358;5.628;2023-02-14T16:24:49;11.20;11.20;8.20
46302;PMS7003;32029;51.358;5.628;2023-02-14T16:27:16;11.00;8.67;5.00
46302;PMS7003;32029;51.358;5.628;2023-02-14T16:29:43;13.00;11.33;6.00
46302;PMS7003;32029;51.358;5.628;2023-02-14T16:32:16;13.33;10.00;6.00
46302;PMS7003;32029;51.358;5.628;2023-02-14T16:34:47;8.80;7.20;5.00
46302;PMS7003;32029;51.358;5.628;2023-02-14T16:37:17;11.00;6.00;4.00
46302;PMS7003;32029;51.358;5.628;2023-02-14T16:39:48;9.00;8.00;5.00
46302;PMS7003;32029;51.358;5.628;2023-02-14T16:42:17;12.33;6.00;4.67
46302;PMS7003;32029;51.358;5.628;2023-02-14T16:44:44;13.67;9.00;6.00
46302;PMS7003;32029;51.358;5.628;2023-02-14T16:47:13;19.40;8.80;6.40
46302;PMS7003;32029;51.358;5.628;2023-02-14T16:49:41;11.33;7.33;6.33
46302;PMS7003;32029;51.358;5.628;2023-02-14T16:52:10;9.67;8.00;5.00
46302;PMS7003;32029;51.358;5.628;2023-02-14T16:54:39;10.67;8.33;7.67
46302;PMS7003;32029;51.358;5.628;2023-02-14T16:57:15;12.00;9.67;7.33
46302;PMS7003;32029;51.358;5.628;2023-02-14T16:59:45;16.33;11.00;8.67
46302;PMS7003;32029;51.358;5.628;2023-02-14T17:02:13;12.20;7.60;5.80
46302;PMS7003;32029;51.358;5.628;2023-02-14T17:04:41;10.33;9.00;7.00